sensor_id;sensor_type;location;lat;lon;timestamp;temperature;humidity
57829;DHT22;43657;52.698;6.314;2022-10-16T00:01:17;12.00;99.90
57829;DHT22;43657;52.698;6.314;2022-10-16T00:03:44;12.00;99.90
57829;DHT22;43657;52.698;6.314;2022-10-16T00:06:11;12.00;99.90
57829;DHT22;43657;52.698;6.314;2022-10-16T00:08:37;12.00;99.90
57829;DHT22;43657;52.698;6.314;2022-10-16T00:11:16;11.90;99.90
57829;DHT22;43657;52.698;6.314;2022-10-16T00:13:43;11.90;99.90
57829;DHT22;43657;52.698;6.314;2022-10-16T00:16:09;12.00;99.90
57829;DHT22;43657;52.698;6.314;2022-10-16T00:18:35;11.90;99.90
57829;DHT22;43657;52.698;6.314;2022-10-16T00:21:28;11.90;99.90
57829;DHT22;43657;52.698;6.314;2022-10-16T00:24:04;11.90;99.90
57829;DHT22;43657;52.698;6.314;2022-10-16T00:26:32;11.90;99.90
57829;DHT22;43657;52.698;6.314;2022-10-16T00:28:59;11.90;99.90
57829;DHT22;43657;52.698;6.314;2022-10-16T00:31:25;11.90;99.90
57829;DHT22;43657;52.698;6.314;2022-10-16T00:33:51;11.90;99.90
57829;DHT22;43657;52.698;6.314;2022-10-16T00:36:20;11.90;99.90
57829;DHT22;43657;52.698;6.314;2022-10-16T00:38:46;11.90;99.90
57829;DHT22;43657;52.698;6.314;2022-10-16T00:41:16;11.90;99.90
57829;DHT22;43657;52.698;6.314;2022-10-16T00:43:48;11.90;99.90
57829;DHT22;43657;52.698;6.314;2022-10-16T00:46:23;11.90;99.90
57829;DHT22;43657;52.698;6.314;2022-10-16T00:49:14;11.90;99.90
57829;DHT22;43657;52.698;6.314;2022-10-16T00:51:41;11.90;99.90
57829;DHT22;43657;52.698;6.314;2022-10-16T00:54:14;11.90;99.90
57829;DHT22;43657;52.698;6.314;2022-10-16T00:56:42;11.90;99.90
57829;DHT22;43657;52.698;6.314;2022-10-16T00:59:16;11.90;99.90
57829;DHT22;43657;52.698;6.314;2022-10-16T01:01:42;11.90;99.90
57829;DHT22;43657;52.698;6.314;2022-10-16T01:04:08;11.90;99.90
57829;DHT22;43657;52.698;6.314;2022-10-16T01:06:46;11.90;99.90
57829;DHT22;43657;52.698;6.314;2022-10-16T01:09:47;11.90;99.90
57829;DHT22;43657;52.698;6.314;2022-10-16T01:12:50;11.90;99.90
57829;DHT22;43657;52.698;6.314;2022-10-16T01:20:24;11.90;99.90
57829;DHT22;43657;52.698;6.314;2022-10-16T01:22:59;11.90;99.90
57829;DHT22;43657;52.698;6.314;2022-10-16T01:31:11;12.00;99.90
57829;DHT22;43657;52.698;6.314;2022-10-16T01:33:46;11.90;99.90
57829;DHT22;43657;52.698;6.314;2022-10-16T01:36:21;12.00;99.90
57829;DHT22;43657;52.698;6.314;2022-10-16T01:38:51;12.00;99.90
57829;DHT22;43657;52.698;6.314;2022-10-16T01:41:45;12.00;99.90
57829;DHT22;43657;52.698;6.314;2022-10-16T01:44:13;12.00;99.90
57829;DHT22;43657;52.698;6.314;2022-10-16T01:46:46;12.00;99.90
57829;DHT22;43657;52.698;6.314;2022-10-16T01:49:13;12.10;99.90
57829;DHT22;43657;52.698;6.314;2022-10-16T01:51:39;12.10;99.90
57829;DHT22;43657;52.698;6.314;2022-10-16T01:54:08;12.10;99.90
57829;DHT22;43657;52.698;6.314;2022-10-16T01:56:34;12.10;99.90
57829;DHT22;43657;52.698;6.314;2022-10-16T01:59:07;12.10;99.90
57829;DHT22;43657;52.698;6.314;2022-10-16T02:01:38;12.10;99.90
57829;DHT22;43657;52.698;6.314;2022-10-16T02:04:31;12.10;99.90
57829;DHT22;43657;52.698;6.314;2022-10-16T02:06:57;12.10;99.90
57829;DHT22;43657;52.698;6.314;2022-10-16T02:09:23;12.10;99.90
57829;DHT22;43657;52.698;6.314;2022-10-16T02:11:50;12.10;99.90
57829;DHT22;43657;52.698;6.314;2022-10-16T02:14:16;12.10;99.90
57829;DHT22;43657;52.698;6.314;2022-10-16T02:16:44;12.10;99.90
57829;DHT22;43657;52.698;6.314;2022-10-16T02:19:11;12.10;99.90
57829;DHT22;43657;52.698;6.314;2022-10-16T02:21:50;12.10;99.90
57829;DHT22;43657;52.698;6.314;2022-10-16T02:24:44;12.10;99.90
57829;DHT22;43657;52.698;6.314;2022-10-16T02:30:36;12.10;99.90
57829;DHT22;43657;52.698;6.314;2022-10-16T02:33:06;12.10;99.90
57829;DHT22;43657;52.698;6.314;2022-10-16T02:35:32;12.10;99.90
57829;DHT22;43657;52.698;6.314;2022-10-16T02:37:59;12.10;99.90
57829;DHT22;43657;52.698;6.314;2022-10-16T02:40:25;12.10;99.90
57829;DHT22;43657;52.698;6.314;2022-10-16T02:42:53;12.10;99.90
57829;DHT22;43657;52.698;6.314;2022-10-16T02:45:19;12.10;99.90
57829;DHT22;43657;52.698;6.314;2022-10-16T02:47:44;12.10;99.90
57829;DHT22;43657;52.698;6.314;2022-10-16T02:50:10;12.10;99.90
57829;DHT22;43657;52.698;6.314;2022-10-16T02:52:36;12.20;99.90
57829;DHT22;43657;52.698;6.314;2022-10-16T02:55:01;12.20;99.90
57829;DHT22;43657;52.698;6.314;2022-10-16T02:57:27;12.20;99.90
57829;DHT22;43657;52.698;6.314;2022-10-16T02:59:53;12.20;99.90
57829;DHT22;43657;52.698;6.314;2022-10-16T03:02:19;12.20;99.90
57829;DHT22;43657;52.698;6.314;2022-10-16T03:04:45;12.20;99.90
57829;DHT22;43657;52.698;6.314;2022-10-16T03:07:10;12.20;99.90
57829;DHT22;43657;52.698;6.314;2022-10-16T03:09:36;12.20;99.90
57829;DHT22;43657;52.698;6.314;2022-10-16T03:12:02;12.30;99.90
57829;DHT22;43657;52.698;6.314;2022-10-16T03:14:27;12.30;99.90
57829;DHT22;43657;52.698;6.314;2022-10-16T03:16:53;12.30;99.90
57829;DHT22;43657;52.698;6.314;2022-10-16T03:19:19;12.30;99.90
57829;DHT22;43657;52.698;6.314;2022-10-16T03:21:45;12.30;99.90
57829;DHT22;43657;52.698;6.314;2022-10-16T03:24:11;12.20;99.90
57829;DHT22;43657;52.698;6.314;2022-10-16T03:26:36;12.30;99.90
57829;DHT22;43657;52.698;6.314;2022-10-16T03:29:02;12.30;99.90
57829;DHT22;43657;52.698;6.314;2022-10-16T03:31:29;12.20;99.90
57829;DHT22;43657;52.698;6.314;2022-10-16T03:33:54;12.30;99.90
57829;DHT22;43657;52.698;6.314;2022-10-16T03:36:20;12.20;99.90
57829;DHT22;43657;52.698;6.314;2022-10-16T03:38:46;12.30;99.90
57829;DHT22;43657;52.698;6.314;2022-10-16T03:41:11;12.20;99.90
57829;DHT22;43657;52.698;6.314;2022-10-16T03:43:37;12.20;99.90
57829;DHT22;43657;52.698;6.314;2022-10-16T03:46:02;12.20;99.90
57829;DHT22;43657;52.698;6.314;2022-10-16T03:48:28;12.20;99.90
57829;DHT22;43657;52.698;6.314;2022-10-16T03:50:54;12.10;99.90
57829;DHT22;43657;52.698;6.314;2022-10-16T03:53:20;12.10;99.90
57829;DHT22;43657;52.698;6.314;2022-10-16T03:55:46;12.20;99.90
57829;DHT22;43657;52.698;6.314;2022-10-16T03:58:11;12.10;99.90
57829;DHT22;43657;52.698;6.314;2022-10-16T04:00:44;12.10;99.90
57829;DHT22;43657;52.698;6.314;2022-10-16T04:03:11;12.00;99.90
57829;DHT22;43657;52.698;6.314;2022-10-16T04:05:36;12.00;99.90
57829;DHT22;43657;52.698;6.314;2022-10-16T04:08:02;12.00;99.90
57829;DHT22;43657;52.698;6.314;2022-10-16T04:10:27;11.90;99.90
57829;DHT22;43657;52.698;6.314;2022-10-16T04:12:53;11.90;99.90
57829;DHT22;43657;52.698;6.314;2022-10-16T04:15:22;11.90;99.90
57829;DHT22;43657;52.698;6.314;2022-10-16T04:17:47;11.90;99.90
57829;DHT22;43657;52.698;6.314;2022-10-16T04:20:13;11.80;99.90
57829;DHT22;43657;52.698;6.314;2022-10-16T04:22:39;11.80;99.90
57829;DHT22;43657;52.698;6.314;2022-10-16T04:25:05;11.80;99.90
57829;DHT22;43657;52.698;6.314;2022-10-16T04:27:30;11.70;99.90
57829;DHT22;43657;52.698;6.314;2022-10-16T04:29:57;11.70;99.90
57829;DHT22;43657;52.698;6.314;2022-10-16T04:32:23;11.70;99.90
57829;DHT22;43657;52.698;6.314;2022-10-16T04:34:49;11.70;99.90
57829;DHT22;43657;52.698;6.314;2022-10-16T04:37:14;11.70;99.90
57829;DHT22;43657;52.698;6.314;2022-10-16T04:39:40;11.70;99.90
57829;DHT22;43657;52.698;6.314;2022-10-16T04:42:05;11.70;99.90
57829;DHT22;43657;52.698;6.314;2022-10-16T04:44:31;11.70;99.90
57829;DHT22;43657;52.698;6.314;2022-10-16T04:46:56;11.70;99.90
57829;DHT22;43657;52.698;6.314;2022-10-16T04:49:22;11.80;99.90
57829;DHT22;43657;52.698;6.314;2022-10-16T04:51:48;11.80;99.90
57829;DHT22;43657;52.698;6.314;2022-10-16T04:54:13;11.70;99.90
57829;DHT22;43657;52.698;6.314;2022-10-16T04:56:39;11.80;99.90
57829;DHT22;43657;52.698;6.314;2022-10-16T04:59:16;11.80;99.90
57829;DHT22;43657;52.698;6.314;2022-10-16T05:01:41;11.80;99.90
57829;DHT22;43657;52.698;6.314;2022-10-16T05:04:07;11.80;99.90
57829;DHT22;43657;52.698;6.314;2022-10-16T05:06:33;11.80;99.90
57829;DHT22;43657;52.698;6.314;2022-10-16T05:08:59;11.80;99.90
57829;DHT22;43657;52.698;6.314;2022-10-16T05:11:24;11.80;99.90
57829;DHT22;43657;52.698;6.314;2022-10-16T05:13:50;11.80;99.90
57829;DHT22;43657;52.698;6.314;2022-10-16T05:16:15;11.80;99.90
57829;DHT22;43657;52.698;6.314;2022-10-16T05:18:41;11.70;99.90
57829;DHT22;43657;52.698;6.314;2022-10-16T05:21:07;11.70;99.90
57829;DHT22;43657;52.698;6.314;2022-10-16T05:23:32;11.70;99.90
57829;DHT22;43657;52.698;6.314;2022-10-16T05:25:59;11.70;99.90
57829;DHT22;43657;52.698;6.314;2022-10-16T05:28:29;11.70;99.90
57829;DHT22;43657;52.698;6.314;2022-10-16T05:30:55;11.70;99.90
57829;DHT22;43657;52.698;6.314;2022-10-16T05:33:22;11.70;99.90
57829;DHT22;43657;52.698;6.314;2022-10-16T05:35:48;11.70;99.90
57829;DHT22;43657;52.698;6.314;2022-10-16T05:38:15;11.70;99.90
57829;DHT22;43657;52.698;6.314;2022-10-16T05:40:41;11.70;99.90
57829;DHT22;43657;52.698;6.314;2022-10-16T05:43:06;11.70;99.90
57829;DHT22;43657;52.698;6.314;2022-10-16T05:45:32;11.70;99.90
57829;DHT22;43657;52.698;6.314;2022-10-16T05:47:57;11.70;99.90
57829;DHT22;43657;52.698;6.314;2022-10-16T05:50:23;11.60;99.90
57829;DHT22;43657;52.698;6.314;2022-10-16T05:52:49;11.70;99.90
57829;DHT22;43657;52.698;6.314;2022-10-16T05:55:14;11.60;99.90
57829;DHT22;43657;52.698;6.314;2022-10-16T05:57:40;11.60;99.90
57829;DHT22;43657;52.698;6.314;2022-10-16T06:00:07;11.60;99.90
57829;DHT22;43657;52.698;6.314;2022-10-16T06:02:32;11.60;99.90
57829;DHT22;43657;52.698;6.314;2022-10-16T06:04:58;11.60;99.90
57829;DHT22;43657;52.698;6.314;2022-10-16T06:07:23;11.60;99.90
57829;DHT22;43657;52.698;6.314;2022-10-16T06:09:52;11.60;99.90
57829;DHT22;43657;52.698;6.314;2022-10-16T06:12:18;11.70;99.90
57829;DHT22;43657;52.698;6.314;2022-10-16T06:14:47;11.70;99.90
57829;DHT22;43657;52.698;6.314;2022-10-16T06:17:14;11.70;99.90
57829;DHT22;43657;52.698;6.314;2022-10-16T06:19:40;11.80;99.90
57829;DHT22;43657;52.698;6.314;2022-10-16T06:22:06;11.80;99.90
57829;DHT22;43657;52.698;6.314;2022-10-16T06:24:31;11.80;99.90
57829;DHT22;43657;52.698;6.314;2022-10-16T06:26:57;11.80;99.90
57829;DHT22;43657;52.698;6.314;2022-10-16T06:29:23;11.90;99.90
57829;DHT22;43657;52.698;6.314;2022-10-16T06:31:48;11.90;99.90
57829;DHT22;43657;52.698;6.314;2022-10-16T06:34:14;11.90;99.90
57829;DHT22;43657;52.698;6.314;2022-10-16T06:36:39;11.90;99.90
57829;DHT22;43657;52.698;6.314;2022-10-16T06:39:05;11.90;99.90
57829;DHT22;43657;52.698;6.314;2022-10-16T06:41:33;12.00;99.90
57829;DHT22;43657;52.698;6.314;2022-10-16T06:43:59;12.00;99.90
57829;DHT22;43657;52.698;6.314;2022-10-16T06:46:25;12.00;99.90
57829;DHT22;43657;52.698;6.314;2022-10-16T06:48:52;12.10;99.90
57829;DHT22;43657;52.698;6.314;2022-10-16T06:51:19;12.20;99.90
57829;DHT22;43657;52.698;6.314;2022-10-16T06:53:47;12.20;99.90
57829;DHT22;43657;52.698;6.314;2022-10-16T06:56:17;12.30;99.90
57829;DHT22;43657;52.698;6.314;2022-10-16T06:58:44;12.30;99.90
57829;DHT22;43657;52.698;6.314;2022-10-16T07:01:11;12.40;99.90
57829;DHT22;43657;52.698;6.314;2022-10-16T07:03:38;12.40;99.90
57829;DHT22;43657;52.698;6.314;2022-10-16T07:06:06;12.40;99.90
57829;DHT22;43657;52.698;6.314;2022-10-16T07:08:38;12.50;99.90
57829;DHT22;43657;52.698;6.314;2022-10-16T07:11:09;12.50;99.90
57829;DHT22;43657;52.698;6.314;2022-10-16T07:13:36;12.60;99.90
57829;DHT22;43657;52.698;6.314;2022-10-16T07:18:32;12.60;99.90
57829;DHT22;43657;52.698;6.314;2022-10-16T07:21:18;12.70;99.90
57829;DHT22;43657;52.698;6.314;2022-10-16T07:23:44;12.80;99.90
57829;DHT22;43657;52.698;6.314;2022-10-16T07:26:10;12.80;99.90
57829;DHT22;43657;52.698;6.314;2022-10-16T07:28:37;12.90;99.90
57829;DHT22;43657;52.698;6.314;2022-10-16T07:31:07;12.90;99.90
57829;DHT22;43657;52.698;6.314;2022-10-16T07:33:34;12.90;99.90
57829;DHT22;43657;52.698;6.314;2022-10-16T07:36:00;13.00;99.90
57829;DHT22;43657;52.698;6.314;2022-10-16T07:38:25;13.00;99.90
57829;DHT22;43657;52.698;6.314;2022-10-16T07:41:02;13.00;99.90
57829;DHT22;43657;52.698;6.314;2022-10-16T07:43:28;13.00;99.90
57829;DHT22;43657;52.698;6.314;2022-10-16T07:45:55;13.00;99.90
57829;DHT22;43657;52.698;6.314;2022-10-16T07:48:21;13.10;99.90
57829;DHT22;43657;52.698;6.314;2022-10-16T07:50:47;13.10;99.90
57829;DHT22;43657;52.698;6.314;2022-10-16T07:53:13;13.10;99.90
57829;DHT22;43657;52.698;6.314;2022-10-16T07:55:39;13.10;99.90
57829;DHT22;43657;52.698;6.314;2022-10-16T07:58:05;13.20;99.90
57829;DHT22;43657;52.698;6.314;2022-10-16T08:00:31;13.20;99.90
57829;DHT22;43657;52.698;6.314;2022-10-16T08:02:58;13.20;99.90
57829;DHT22;43657;52.698;6.314;2022-10-16T08:05:28;13.30;99.90
57829;DHT22;43657;52.698;6.314;2022-10-16T08:07:54;13.40;99.90
57829;DHT22;43657;52.698;6.314;2022-10-16T08:10:21;13.40;99.90
57829;DHT22;43657;52.698;6.314;2022-10-16T08:12:47;13.50;99.90
57829;DHT22;43657;52.698;6.314;2022-10-16T08:15:12;13.50;99.90
57829;DHT22;43657;52.698;6.314;2022-10-16T08:17:38;13.60;99.90
57829;DHT22;43657;52.698;6.314;2022-10-16T08:20:05;13.60;99.90
57829;DHT22;43657;52.698;6.314;2022-10-16T08:22:30;13.70;99.90
57829;DHT22;43657;52.698;6.314;2022-10-16T08:24:56;13.80;99.90
57829;DHT22;43657;52.698;6.314;2022-10-16T08:27:22;13.80;99.90
57829;DHT22;43657;52.698;6.314;2022-10-16T08:29:48;13.80;99.90
57829;DHT22;43657;52.698;6.314;2022-10-16T08:32:14;13.80;99.90
57829;DHT22;43657;52.698;6.314;2022-10-16T08:34:40;13.80;99.90
57829;DHT22;43657;52.698;6.314;2022-10-16T08:37:05;13.80;99.90
57829;DHT22;43657;52.698;6.314;2022-10-16T08:39:33;13.70;99.90
57829;DHT22;43657;52.698;6.314;2022-10-16T08:50:09;13.60;99.90
57829;DHT22;43657;52.698;6.314;2022-10-16T08:52:39;13.60;99.90
57829;DHT22;43657;52.698;6.314;2022-10-16T08:55:05;13.70;99.90
57829;DHT22;43657;52.698;6.314;2022-10-16T08:57:31;13.80;99.90
57829;DHT22;43657;52.698;6.314;2022-10-16T09:00:12;13.90;99.90
57829;DHT22;43657;52.698;6.314;2022-10-16T09:02:59;13.90;99.90
57829;DHT22;43657;52.698;6.314;2022-10-16T09:14:00;14.30;99.90
57829;DHT22;43657;52.698;6.314;2022-10-16T09:16:34;14.30;99.90
57829;DHT22;43657;52.698;6.314;2022-10-16T09:19:15;14.40;99.90
57829;DHT22;43657;52.698;6.314;2022-10-16T09:21:45;14.40;99.90
57829;DHT22;43657;52.698;6.314;2022-10-16T09:24:20;14.50;99.90
57829;DHT22;43657;52.698;6.314;2022-10-16T09:26:46;14.50;99.90
57829;DHT22;43657;52.698;6.314;2022-10-16T09:29:17;14.50;99.90
57829;DHT22;43657;52.698;6.314;2022-10-16T09:31:45;14.60;99.90
57829;DHT22;43657;52.698;6.314;2022-10-16T09:34:32;14.70;99.90
57829;DHT22;43657;52.698;6.314;2022-10-16T09:37:05;14.80;99.90
57829;DHT22;43657;52.698;6.314;2022-10-16T09:39:47;14.90;99.90
57829;DHT22;43657;52.698;6.314;2022-10-16T09:42:48;15.00;99.90
57829;DHT22;43657;52.698;6.314;2022-10-16T09:45:21;15.10;99.90
57829;DHT22;43657;52.698;6.314;2022-10-16T09:47:48;15.20;99.90
57829;DHT22;43657;52.698;6.314;2022-10-16T09:50:40;15.20;99.90
57829;DHT22;43657;52.698;6.314;2022-10-16T09:53:13;15.30;99.90
57829;DHT22;43657;52.698;6.314;2022-10-16T09:55:49;15.40;99.90
57829;DHT22;43657;52.698;6.314;2022-10-16T09:58:15;15.50;99.90
57829;DHT22;43657;52.698;6.314;2022-10-16T10:00:48;15.60;99.90
57829;DHT22;43657;52.698;6.314;2022-10-16T10:03:35;15.70;99.90
57829;DHT22;43657;52.698;6.314;2022-10-16T10:06:25;15.90;99.90
57829;DHT22;43657;52.698;6.314;2022-10-16T10:14:38;16.40;99.90
57829;DHT22;43657;52.698;6.314;2022-10-16T10:19:48;16.50;99.90
57829;DHT22;43657;52.698;6.314;2022-10-16T10:27:25;16.90;99.90
57829;DHT22;43657;52.698;6.314;2022-10-16T10:41:35;17.30;99.90
57829;DHT22;43657;52.698;6.314;2022-10-16T10:44:24;17.30;99.90
57829;DHT22;43657;52.698;6.314;2022-10-16T10:50:25;17.30;99.90
57829;DHT22;43657;52.698;6.314;2022-10-16T10:52:59;17.40;99.90
57829;DHT22;43657;52.698;6.314;2022-10-16T10:55:37;17.50;99.90
57829;DHT22;43657;52.698;6.314;2022-10-16T11:01:04;17.60;99.90
57829;DHT22;43657;52.698;6.314;2022-10-16T11:06:44;17.90;99.90
57829;DHT22;43657;52.698;6.314;2022-10-16T11:09:35;17.80;99.90
57829;DHT22;43657;52.698;6.314;2022-10-16T11:12:38;17.50;99.90
57829;DHT22;43657;52.698;6.314;2022-10-16T11:15:33;17.50;99.90
57829;DHT22;43657;52.698;6.314;2022-10-16T11:18:11;17.40;99.90
57829;DHT22;43657;52.698;6.314;2022-10-16T11:20:59;17.40;99.90
57829;DHT22;43657;52.698;6.314;2022-10-16T11:25:59;17.80;99.90
57829;DHT22;43657;52.698;6.314;2022-10-16T11:29:09;18.10;99.90
57829;DHT22;43657;52.698;6.314;2022-10-16T11:31:53;18.30;99.90
57829;DHT22;43657;52.698;6.314;2022-10-16T11:34:38;18.60;99.90
57829;DHT22;43657;52.698;6.314;2022-10-16T11:37:33;18.40;99.90
57829;DHT22;43657;52.698;6.314;2022-10-16T11:40:25;18.50;99.90
57829;DHT22;43657;52.698;6.314;2022-10-16T11:47:01;18.80;99.90
57829;DHT22;43657;52.698;6.314;2022-10-16T11:49:46;18.80;99.90
57829;DHT22;43657;52.698;6.314;2022-10-16T11:52:55;18.90;99.90
57829;DHT22;43657;52.698;6.314;2022-10-16T11:55:45;19.10;99.90
57829;DHT22;43657;52.698;6.314;2022-10-16T11:59:07;19.00;99.90
57829;DHT22;43657;52.698;6.314;2022-10-16T12:02:32;19.00;99.90
57829;DHT22;43657;52.698;6.314;2022-10-16T12:08:17;19.00;99.90
57829;DHT22;43657;52.698;6.314;2022-10-16T12:11:06;19.10;99.90
57829;DHT22;43657;52.698;6.314;2022-10-16T12:13:47;19.20;99.90
57829;DHT22;43657;52.698;6.314;2022-10-16T12:16:38;19.40;99.90
57829;DHT22;43657;52.698;6.314;2022-10-16T12:19:19;19.70;99.90
57829;DHT22;43657;52.698;6.314;2022-10-16T12:21:58;19.50;99.90
57829;DHT22;43657;52.698;6.314;2022-10-16T12:24:41;19.20;99.90
57829;DHT22;43657;52.698;6.314;2022-10-16T12:27:32;18.70;99.90
57829;DHT22;43657;52.698;6.314;2022-10-16T12:30:14;18.50;99.90
57829;DHT22;43657;52.698;6.314;2022-10-16T12:33:01;18.60;99.90
57829;DHT22;43657;52.698;6.314;2022-10-16T12:35:48;18.50;99.90
57829;DHT22;43657;52.698;6.314;2022-10-16T12:38:36;18.50;99.90
57829;DHT22;43657;52.698;6.314;2022-10-16T12:41:32;18.70;99.90
57829;DHT22;43657;52.698;6.314;2022-10-16T12:44:45;18.60;99.90
57829;DHT22;43657;52.698;6.314;2022-10-16T12:47:57;18.40;99.90
57829;DHT22;43657;52.698;6.314;2022-10-16T12:50:37;18.10;99.90
57829;DHT22;43657;52.698;6.314;2022-10-16T12:53:18;17.90;99.90
57829;DHT22;43657;52.698;6.314;2022-10-16T13:18:14;18.50;99.90
57829;DHT22;43657;52.698;6.314;2022-10-16T13:33:02;18.20;99.90
57829;DHT22;43657;52.698;6.314;2022-10-16T13:39:23;18.00;99.90
57829;DHT22;43657;52.698;6.314;2022-10-16T13:45:17;17.80;99.90
57829;DHT22;43657;52.698;6.314;2022-10-16T13:48:13;17.70;99.90
57829;DHT22;43657;52.698;6.314;2022-10-16T13:51:23;17.70;99.90
57829;DHT22;43657;52.698;6.314;2022-10-16T13:54:13;17.60;99.90
57829;DHT22;43657;52.698;6.314;2022-10-16T14:01:01;17.40;99.90
57829;DHT22;43657;52.698;6.314;2022-10-16T14:06:13;17.00;99.90
57829;DHT22;43657;52.698;6.314;2022-10-16T14:09:26;16.90;99.90
57829;DHT22;43657;52.698;6.314;2022-10-16T14:15:45;16.80;99.90
57829;DHT22;43657;52.698;6.314;2022-10-16T14:18:29;16.70;99.90
57829;DHT22;43657;52.698;6.314;2022-10-16T14:21:31;16.70;99.90
57829;DHT22;43657;52.698;6.314;2022-10-16T14:27:20;16.50;99.90
57829;DHT22;43657;52.698;6.314;2022-10-16T14:30:48;16.50;99.90
57829;DHT22;43657;52.698;6.314;2022-10-16T14:33:41;16.30;99.90
57829;DHT22;43657;52.698;6.314;2022-10-16T14:38:49;16.30;99.90
57829;DHT22;43657;52.698;6.314;2022-10-16T14:41:15;16.30;99.90
57829;DHT22;43657;52.698;6.314;2022-10-16T14:44:09;16.20;99.90
57829;DHT22;43657;52.698;6.314;2022-10-16T14:46:41;16.10;99.90
57829;DHT22;43657;52.698;6.314;2022-10-16T14:51:50;16.10;99.90
57829;DHT22;43657;52.698;6.314;2022-10-16T14:54:23;16.10;99.90
57829;DHT22;43657;52.698;6.314;2022-10-16T15:00:16;16.10;99.90
57829;DHT22;43657;52.698;6.314;2022-10-16T15:02:49;16.00;99.90
57829;DHT22;43657;52.698;6.314;2022-10-16T15:05:36;15.90;99.90
57829;DHT22;43657;52.698;6.314;2022-10-16T15:08:05;15.80;99.90
57829;DHT22;43657;52.698;6.314;2022-10-16T15:10:42;15.90;99.90
57829;DHT22;43657;52.698;6.314;2022-10-16T15:13:30;15.70;99.90
57829;DHT22;43657;52.698;6.314;2022-10-16T15:16:37;15.80;99.90
57829;DHT22;43657;52.698;6.314;2022-10-16T15:19:08;15.60;99.90
57829;DHT22;43657;52.698;6.314;2022-10-16T15:22:04;15.60;99.90
57829;DHT22;43657;52.698;6.314;2022-10-16T15:28:29;15.40;99.90
57829;DHT22;43657;52.698;6.314;2022-10-16T15:31:10;15.30;99.90
57829;DHT22;43657;52.698;6.314;2022-10-16T15:33:52;15.40;99.90
57829;DHT22;43657;52.698;6.314;2022-10-16T15:36:39;15.20;99.90
57829;DHT22;43657;52.698;6.314;2022-10-16T15:39:29;15.20;99.90
57829;DHT22;43657;52.698;6.314;2022-10-16T15:42:09;15.10;99.90
57829;DHT22;43657;52.698;6.314;2022-10-16T15:44:54;15.10;99.90
57829;DHT22;43657;52.698;6.314;2022-10-16T15:47:33;15.00;99.90
57829;DHT22;43657;52.698;6.314;2022-10-16T15:50:45;14.90;99.90
57829;DHT22;43657;52.698;6.314;2022-10-16T15:53:31;14.90;99.90
57829;DHT22;43657;52.698;6.314;2022-10-16T15:56:08;14.80;99.90
57829;DHT22;43657;52.698;6.314;2022-10-16T15:59:00;14.80;99.90
57829;DHT22;43657;52.698;6.314;2022-10-16T16:04:46;14.60;99.90
57829;DHT22;43657;52.698;6.314;2022-10-16T16:07:38;14.50;99.90
57829;DHT22;43657;52.698;6.314;2022-10-16T16:10:24;14.30;99.90
57829;DHT22;43657;52.698;6.314;2022-10-16T16:13:12;14.30;99.90
57829;DHT22;43657;52.698;6.314;2022-10-16T16:15:41;14.20;99.90
57829;DHT22;43657;52.698;6.314;2022-10-16T16:18:22;14.10;99.90
57829;DHT22;43657;52.698;6.314;2022-10-16T16:20:54;14.10;99.90
57829;DHT22;43657;52.698;6.314;2022-10-16T16:26:22;13.90;99.90
57829;DHT22;43657;52.698;6.314;2022-10-16T16:29:19;13.80;99.90
57829;DHT22;43657;52.698;6.314;2022-10-16T16:31:47;13.80;99.90
57829;DHT22;43657;52.698;6.314;2022-10-16T16:34:26;13.70;99.90
57829;DHT22;43657;52.698;6.314;2022-10-16T16:36:57;13.60;99.90
57829;DHT22;43657;52.698;6.314;2022-10-16T16:39:39;13.50;99.90
57829;DHT22;43657;52.698;6.314;2022-10-16T16:42:09;13.50;99.90
57829;DHT22;43657;52.698;6.314;2022-10-16T16:44:41;13.50;99.90
57829;DHT22;43657;52.698;6.314;2022-10-16T16:47:16;13.30;99.90
57829;DHT22;43657;52.698;6.314;2022-10-16T16:50:05;13.30;99.90
57829;DHT22;43657;52.698;6.314;2022-10-16T16:52:48;13.20;99.90
57829;DHT22;43657;52.698;6.314;2022-10-16T16:55:19;13.20;99.90
57829;DHT22;43657;52.698;6.314;2022-10-16T16:58:01;13.10;99.90
57829;DHT22;43657;52.698;6.314;2022-10-16T17:00:49;13.10;99.90
57829;DHT22;43657;52.698;6.314;2022-10-16T17:03:20;13.00;99.90
57829;DHT22;43657;52.698;6.314;2022-10-16T17:06:11;12.90;99.90
57829;DHT22;43657;52.698;6.314;2022-10-16T17:08:50;12.80;99.90
57829;DHT22;43657;52.698;6.314;2022-10-16T17:11:41;12.80;99.90
57829;DHT22;43657;52.698;6.314;2022-10-16T17:14:14;12.70;99.90
57829;DHT22;43657;52.698;6.314;2022-10-16T17:17:26;12.60;99.90
57829;DHT22;43657;52.698;6.314;2022-10-16T17:19:56;12.50;99.90
57829;DHT22;43657;52.698;6.314;2022-10-16T17:22:24;12.50;99.90
57829;DHT22;43657;52.698;6.314;2022-10-16T17:24:50;12.40;99.90
57829;DHT22;43657;52.698;6.314;2022-10-16T17:27:36;12.40;99.90
57829;DHT22;43657;52.698;6.314;2022-10-16T17:30:09;12.30;99.90
57829;DHT22;43657;52.698;6.314;2022-10-16T17:32:38;12.30;99.90
57829;DHT22;43657;52.698;6.314;2022-10-16T17:35:11;12.20;99.90
57829;DHT22;43657;52.698;6.314;2022-10-16T17:37:37;12.20;99.90
57829;DHT22;43657;52.698;6.314;2022-10-16T17:40:11;12.10;99.90
57829;DHT22;43657;52.698;6.314;2022-10-16T17:42:37;12.10;99.90
57829;DHT22;43657;52.698;6.314;2022-10-16T17:45:16;12.10;99.90
57829;DHT22;43657;52.698;6.314;2022-10-16T17:47:45;12.00;99.90
57829;DHT22;43657;52.698;6.314;2022-10-16T17:50:11;12.00;99.90
57829;DHT22;43657;52.698;6.314;2022-10-16T17:52:44;12.00;99.90
57829;DHT22;43657;52.698;6.314;2022-10-16T17:55:21;12.00;99.90
57829;DHT22;43657;52.698;6.314;2022-10-16T17:57:46;11.90;99.90
57829;DHT22;43657;52.698;6.314;2022-10-16T18:00:15;11.90;99.90
57829;DHT22;43657;52.698;6.314;2022-10-16T18:02:41;11.90;99.90
57829;DHT22;43657;52.698;6.314;2022-10-16T18:05:10;11.90;99.90
57829;DHT22;43657;52.698;6.314;2022-10-16T18:07:41;11.90;99.90
57829;DHT22;43657;52.698;6.314;2022-10-16T18:10:07;11.90;99.90
57829;DHT22;43657;52.698;6.314;2022-10-16T18:12:34;11.90;99.90
57829;DHT22;43657;52.698;6.314;2022-10-16T18:15:00;11.90;99.90
57829;DHT22;43657;52.698;6.314;2022-10-16T18:17:26;11.90;99.90
57829;DHT22;43657;52.698;6.314;2022-10-16T18:19:58;11.90;99.90
57829;DHT22;43657;52.698;6.314;2022-10-16T18:22:26;11.90;99.90
57829;DHT22;43657;52.698;6.314;2022-10-16T18:24:58;11.90;99.90
57829;DHT22;43657;52.698;6.314;2022-10-16T18:27:31;12.00;99.90
57829;DHT22;43657;52.698;6.314;2022-10-16T18:30:00;11.90;99.90
57829;DHT22;43657;52.698;6.314;2022-10-16T18:32:29;11.90;99.90
57829;DHT22;43657;52.698;6.314;2022-10-16T18:34:55;11.90;99.90
57829;DHT22;43657;52.698;6.314;2022-10-16T18:37:21;11.90;99.90
57829;DHT22;43657;52.698;6.314;2022-10-16T18:39:47;11.90;99.90
57829;DHT22;43657;52.698;6.314;2022-10-16T18:42:17;11.80;99.90